map of SOU home
SOU - Airport
Location
City:  Southampton, Hampshire, England, United Kingdom
Name:Eastleigh
ICAO:EGHI
IATA:SOU

Details
Type:Airport (Aerodrome, Airfield)
Use:Public/Civil, International (customs port of entry)
Latitude:5057'01"N (50.950261)
Longitude:121'24"W (-1.356802)
Datum:WGS 1984
Elevation:44 ft (13 m)
Variation:0.47W (WMM2015v2 magnetic declination)
0.19 annual change
Runways:1
Longest:5653 × 121 ft (1723 × 37 m), paved

Time
Time Zone:UTC+0 (DST+1)
Local Time:

Weather
METAR:EGHI 041350Z 19006KT 160V220 3000 -RADZ BR BKN005 09/08 Q1017 REDZ

Related Locations
Nearby:
Farthest:NZTI: 11917 mi / 19178 km
Taieri, OTA, NZ

Find:

   beyond  
but within

Other Information
Maps:
NOTAMs:
Links:
Sources:

  
  • flag of United Kingdom
  • flag of England
  • flag of Hampshire
  

Sectional Chart

Flight Planning
at skyvector.com

Satellite Image

Google Maps Satellite view

 

Copyright © 2004-2019 Karl L. Swartz. All rights reserved.
The Great Circle Mapper name and logo are trademarks of the Great Circle Mapper.
All other trademarks mentioned herein belong to their respective owners.
Please see credits for attibutions and further copyright information.

  Follow gcmap on Facebook Follow gcmap on Twitter GCmap on LinkedIn

hCard Microformat

Geo Microformat